createdAt,value
2023-05-12T00:01:16.641Z,45.00
2023-05-12T00:03:44.822Z,45.10
2023-05-12T00:06:12.953Z,45.00
2023-05-12T00:08:40.818Z,45.00
2023-05-12T00:11:08.733Z,45.00
2023-05-12T00:13:36.812Z,45.00
2023-05-12T00:16:05.051Z,45.00
2023-05-12T00:18:32.910Z,45.00
2023-05-12T00:21:01.342Z,45.00
2023-05-12T00:23:29.433Z,45.00
2023-05-12T00:25:57.362Z,45.00
2023-05-12T00:28:25.249Z,45.00
2023-05-12T00:30:53.238Z,45.00
2023-05-12T00:33:21.204Z,45.00
2023-05-12T00:35:49.030Z,45.00
2023-05-12T00:38:16.998Z,45.00
2023-05-12T00:40:44.833Z,45.00
2023-05-12T00:43:12.757Z,45.00
2023-05-12T00:45:40.875Z,45.00
2023-05-12T00:48:08.923Z,45.00
2023-05-12T00:50:37.283Z,45.00
2023-05-12T00:53:06.683Z,44.90
2023-05-12T00:55:36.818Z,44.90
2023-05-12T00:58:06.215Z,44.90
2023-05-12T01:00:35.700Z,44.90
2023-05-12T01:03:04.993Z,44.90
2023-05-12T01:05:42.743Z,44.90
2023-05-12T01:08:11.953Z,44.90
2023-05-12T01:10:44.726Z,44.90
2023-05-12T01:13:13.372Z,44.80
2023-05-12T01:15:46.898Z,44.90
2023-05-12T01:18:16.420Z,44.80
2023-05-12T01:20:44.789Z,44.80
2023-05-12T01:23:16.203Z,44.80
2023-05-12T01:25:46.347Z,44.80
2023-05-12T01:28:14.689Z,44.80
2023-05-12T01:30:43.889Z,44.80
2023-05-12T01:33:14.297Z,44.80
2023-05-12T01:35:42.658Z,44.80
2023-05-12T01:38:11.488Z,44.80
2023-05-12T01:40:41.459Z,44.80
2023-05-12T01:43:09.529Z,44.80
2023-05-12T01:45:38.771Z,44.80
2023-05-12T01:48:06.789Z,44.80
2023-05-12T01:50:34.699Z,44.70
2023-05-12T01:53:04.562Z,44.70
2023-05-12T01:55:34.661Z,44.70
2023-05-12T01:58:03.288Z,44.80
2023-05-12T02:00:32.279Z,44.70
2023-05-12T02:03:01.648Z,44.70
2023-05-12T02:05:29.787Z,44.70
2023-05-12T02:07:57.769Z,44.70
2023-05-12T02:10:25.813Z,44.70
2023-05-12T02:12:53.707Z,44.80
2023-05-12T02:15:21.796Z,44.80
2023-05-12T02:17:54.080Z,44.80
2023-05-12T02:20:22.825Z,44.80
2023-05-12T02:22:50.778Z,44.80
2023-05-12T02:25:18.757Z,44.70
2023-05-12T02:27:46.771Z,44.80
2023-05-12T02:30:15.868Z,44.70
2023-05-12T02:32:43.858Z,44.60
2023-05-12T02:35:12.683Z,44.60
2023-05-12T02:37:41.511Z,44.60
2023-05-12T02:40:09.874Z,44.50
2023-05-12T02:42:38.935Z,44.50
2023-05-12T02:45:08.347Z,44.40
2023-05-12T02:47:37.862Z,44.40
2023-05-12T02:50:06.656Z,44.40
2023-05-12T02:52:34.963Z,44.30
2023-05-12T02:55:03.451Z,44.30
2023-05-12T02:57:34.666Z,44.30
2023-05-12T03:00:07.395Z,44.20
2023-05-12T03:02:39.881Z,44.10
2023-05-12T03:05:09.461Z,44.10
2023-05-12T03:07:38.222Z,44.10
2023-05-12T03:10:06.942Z,44.10
2023-05-12T03:12:34.970Z,44.10
2023-05-12T03:15:04.886Z,44.00
2023-05-12T03:17:33.306Z,44.00
2023-05-12T03:20:01.679Z,44.00
2023-05-12T03:22:30.219Z,44.00
2023-05-12T03:24:59.166Z,43.90
2023-05-12T03:27:27.493Z,43.80
2023-05-12T03:29:55.676Z,43.90
2023-05-12T03:32:23.772Z,43.80
2023-05-12T03:34:52.026Z,43.80
2023-05-12T03:37:20.282Z,43.80
2023-05-12T03:39:48.434Z,43.70
2023-05-12T03:42:16.655Z,43.60
2023-05-12T03:44:44.696Z,43.70
2023-05-12T03:47:14.252Z,43.70
2023-05-12T03:49:42.359Z,43.60
2023-05-12T03:52:10.350Z,43.60
2023-05-12T03:54:38.842Z,43.60
2023-05-12T03:57:07.636Z,43.60
2023-05-12T03:59:35.805Z,43.50
2023-05-12T04:02:04.354Z,43.50
2023-05-12T04:04:32.553Z,43.50
2023-05-12T04:07:00.605Z,43.50
2023-05-12T04:09:30.971Z,43.50
2023-05-12T04:11:59.196Z,42.80
2023-05-12T04:14:39.028Z,42.30
2023-05-12T04:17:09.904Z,42.20
2023-05-12T04:19:37.981Z,40.70
2023-05-12T04:22:06.263Z,39.20
2023-05-12T04:24:34.543Z,39.00
2023-05-12T04:27:02.412Z,38.90
2023-05-12T04:29:30.414Z,39.10
2023-05-12T04:32:00.196Z,39.10
2023-05-12T04:34:28.692Z,39.30
2023-05-12T04:36:57.021Z,39.50
2023-05-12T04:39:24.973Z,39.60
2023-05-12T04:41:53.416Z,39.90
2023-05-12T04:44:22.411Z,40.40
2023-05-12T04:46:53.575Z,41.00
2023-05-12T04:49:22.365Z,40.80
2023-05-12T04:51:50.587Z,41.30
2023-05-12T04:54:18.591Z,41.40
2023-05-12T04:56:46.674Z,41.40
2023-05-12T04:59:16.101Z,41.60
2023-05-12T05:01:45.913Z,42.30
2023-05-12T05:04:14.871Z,41.80
2023-05-12T05:06:42.969Z,41.50
2023-05-12T05:09:11.414Z,41.10
2023-05-12T05:11:39.799Z,41.00
2023-05-12T05:14:08.218Z,41.10
2023-05-12T05:16:36.993Z,41.00
2023-05-12T05:19:06.774Z,40.80
2023-05-12T05:21:37.720Z,41.10
2023-05-12T05:24:08.510Z,40.90
2023-05-12T05:26:37.702Z,41.10
2023-05-12T05:29:06.493Z,41.10
2023-05-12T05:31:35.806Z,41.00
2023-05-12T05:34:03.803Z,41.00
2023-05-12T05:36:32.163Z,41.10
2023-05-12T05:39:00.332Z,40.90
2023-05-12T05:41:28.570Z,41.00
2023-05-12T05:43:56.832Z,41.10
2023-05-12T05:46:25.101Z,41.20
2023-05-12T05:48:54.078Z,41.00
2023-05-12T05:51:22.500Z,41.10
2023-05-12T05:53:50.563Z,41.00
2023-05-12T05:56:19.347Z,41.30
2023-05-12T05:58:48.045Z,41.30
2023-05-12T06:01:16.236Z,41.40
2023-05-12T06:03:44.277Z,41.20
2023-05-12T06:06:12.438Z,41.10
2023-05-12T06:08:40.609Z,41.10
2023-05-12T06:11:08.842Z,41.40
2023-05-12T06:13:37.252Z,41.50
2023-05-12T06:16:05.824Z,41.40
2023-05-12T06:18:38.239Z,41.50
2023-05-12T06:21:06.755Z,41.50
2023-05-12T06:23:34.842Z,41.50
2023-05-12T06:26:03.361Z,41.60
2023-05-12T06:28:31.343Z,41.60
2023-05-12T06:31:00.000Z,41.60
2023-05-12T06:33:28.143Z,41.60
2023-05-12T06:35:56.068Z,41.70
2023-05-12T06:38:24.048Z,41.80
2023-05-12T06:40:52.031Z,41.80
2023-05-12T06:43:20.155Z,41.80
2023-05-12T06:45:48.239Z,41.70
2023-05-12T06:48:16.332Z,41.80
2023-05-12T06:50:44.422Z,41.60
2023-05-12T06:53:12.648Z,41.70
2023-05-12T06:55:43.367Z,41.60
2023-05-12T06:58:11.491Z,41.70
2023-05-12T07:00:39.697Z,41.80
2023-05-12T07:03:10.712Z,41.80
2023-05-12T07:05:38.972Z,41.80
2023-05-12T07:08:07.804Z,41.80
2023-05-12T07:10:36.063Z,41.80
2023-05-12T07:13:04.627Z,41.80
2023-05-12T07:15:33.168Z,41.90
2023-05-12T07:18:01.376Z,41.90
2023-05-12T07:20:29.588Z,41.90
2023-05-12T07:22:57.991Z,41.80
2023-05-12T07:25:26.312Z,41.80
2023-05-12T07:27:54.557Z,41.80
2023-05-12T07:30:22.742Z,41.80
2023-05-12T07:32:50.925Z,41.70
2023-05-12T07:35:19.443Z,41.70
2023-05-12T07:37:47.750Z,41.80
2023-05-12T07:40:16.179Z,41.70
2023-05-12T07:42:44.312Z,41.70
2023-05-12T07:45:12.680Z,41.70
2023-05-12T07:47:41.199Z,41.70
2023-05-12T07:50:09.588Z,41.80
2023-05-12T07:52:37.689Z,41.70
2023-05-12T07:55:06.002Z,41.80
2023-05-12T07:57:33.904Z,41.70
2023-05-12T08:00:01.884Z,41.70
2023-05-12T08:02:30.609Z,41.80
2023-05-12T08:04:58.863Z,41.90
2023-05-12T08:07:27.110Z,42.50
2023-05-12T08:09:55.472Z,42.20
2023-05-12T08:12:23.687Z,42.50
2023-05-12T08:14:51.883Z,42.20
2023-05-12T08:17:19.993Z,42.30
2023-05-12T08:19:48.106Z,42.50
2023-05-12T08:22:16.214Z,42.60
2023-05-12T08:24:44.396Z,42.70
2023-05-12T08:27:12.637Z,42.50
2023-05-12T08:29:40.639Z,42.50
2023-05-12T08:32:08.790Z,42.40
2023-05-12T08:34:37.013Z,42.40
2023-05-12T08:37:06.513Z,42.20
2023-05-12T08:39:35.581Z,42.20
2023-05-12T08:42:37.533Z,42.20
2023-05-12T08:45:06.720Z,42.30
2023-05-12T08:47:36.259Z,42.90
2023-05-12T08:50:05.708Z,43.00
2023-05-12T08:52:36.233Z,43.00
2023-05-12T08:55:09.552Z,43.00
2023-05-12T08:57:39.563Z,42.90
2023-05-12T09:00:09.155Z,42.70
2023-05-12T09:02:53.284Z,42.70
2023-05-12T09:05:23.599Z,42.90
2023-05-12T09:07:55.251Z,42.60
2023-05-12T09:10:34.986Z,42.30
2023-05-12T09:13:17.857Z,42.40
2023-05-12T09:15:49.182Z,42.60
2023-05-12T09:18:17.624Z,42.50
2023-05-12T09:20:45.950Z,42.30
2023-05-12T09:23:20.803Z,42.50
2023-05-12T09:25:59.853Z,42.50
2023-05-12T09:28:38.419Z,42.70
2023-05-12T09:31:20.426Z,42.60
2023-05-12T09:33:49.560Z,42.70
2023-05-12T09:36:23.383Z,42.60
2023-05-12T09:39:09.235Z,42.60
2023-05-12T09:41:38.972Z,42.50
2023-05-12T09:44:08.803Z,42.40
2023-05-12T09:46:39.977Z,42.30
2023-05-12T09:49:08.720Z,42.30
2023-05-12T09:51:37.132Z,42.30
2023-05-12T09:54:07.603Z,42.20
2023-05-12T09:56:37.981Z,42.20
2023-05-12T09:59:06.829Z,42.10
2023-05-12T10:01:36.181Z,42.10
2023-05-12T10:04:07.935Z,42.20
2023-05-12T10:06:41.846Z,41.90
2023-05-12T10:09:19.531Z,42.00
2023-05-12T10:11:48.295Z,42.30
2023-05-12T10:14:17.527Z,42.30
2023-05-12T10:16:46.982Z,42.10
2023-05-12T10:19:16.609Z,42.30
2023-05-12T10:21:46.538Z,42.60
2023-05-12T10:24:17.094Z,42.70
2023-05-12T10:26:45.928Z,42.70
2023-05-12T10:29:14.917Z,42.70
2023-05-12T10:31:45.570Z,42.30
2023-05-12T10:34:19.694Z,42.10
2023-05-12T10:36:50.434Z,42.10
2023-05-12T10:39:19.725Z,42.10
2023-05-12T10:41:48.014Z,42.40
2023-05-12T10:44:28.215Z,42.60
2023-05-12T10:47:00.027Z,42.50
2023-05-12T10:49:37.691Z,42.70
2023-05-12T10:52:07.624Z,42.70
2023-05-12T10:54:45.679Z,42.50
2023-05-12T10:57:18.271Z,42.20
2023-05-12T10:59:53.021Z,41.90
2023-05-12T11:02:27.513Z,41.90
2023-05-12T11:05:05.176Z,41.80
2023-05-12T11:07:35.630Z,41.90
2023-05-12T11:10:06.072Z,41.80
2023-05-12T11:12:38.162Z,41.90
2023-05-12T11:15:07.695Z,41.80
2023-05-12T11:17:41.143Z,41.90
2023-05-12T11:20:12.764Z,42.30
2023-05-12T11:22:42.928Z,42.00
2023-05-12T11:25:12.577Z,42.70
2023-05-12T11:27:47.780Z,42.40
2023-05-12T11:30:16.602Z,42.10
2023-05-12T11:32:45.189Z,42.00
2023-05-12T11:35:16.444Z,42.00
2023-05-12T11:37:46.572Z,42.00
2023-05-12T11:40:19.546Z,41.90
2023-05-12T11:42:52.472Z,42.00
2023-05-12T11:45:30.848Z,42.00
2023-05-12T11:48:12.344Z,42.10
2023-05-12T11:50:47.826Z,42.20
2023-05-12T11:53:18.835Z,42.60
2023-05-12T11:55:51.688Z,42.50
2023-05-12T11:58:29.989Z,43.00
2023-05-12T12:01:09.171Z,43.10
2023-05-12T12:03:47.131Z,42.80
2023-05-12T12:06:16.235Z,43.00
2023-05-12T12:08:51.748Z,43.10
2023-05-12T12:11:21.506Z,43.20
2023-05-12T12:13:59.010Z,43.10
2023-05-12T12:16:28.442Z,43.20
2023-05-12T12:18:57.791Z,43.10
2023-05-12T12:21:26.402Z,43.10
2023-05-12T12:23:54.491Z,42.70
2023-05-12T12:26:23.335Z,43.00
2023-05-12T12:28:51.715Z,42.80
2023-05-12T12:31:20.023Z,42.80
2023-05-12T12:33:48.094Z,42.60
2023-05-12T12:36:16.310Z,42.50
2023-05-12T12:38:44.854Z,42.40
2023-05-12T12:41:12.947Z,42.30
2023-05-12T12:43:41.247Z,42.50
2023-05-12T12:46:09.418Z,42.40
2023-05-12T12:48:37.339Z,42.50
2023-05-12T12:51:06.269Z,42.60
2023-05-12T12:53:35.690Z,42.10
2023-05-12T12:56:05.029Z,42.40
2023-05-12T12:58:33.363Z,42.20
2023-05-12T13:01:02.350Z,42.30
2023-05-12T13:03:30.679Z,42.20
2023-05-12T13:05:59.204Z,42.20
2023-05-12T13:08:27.414Z,42.20
2023-05-12T13:10:56.129Z,42.20
2023-05-12T13:13:25.361Z,42.40
2023-05-12T13:15:56.881Z,42.40
2023-05-12T13:18:24.907Z,42.30
2023-05-12T13:20:54.475Z,42.40
2023-05-12T13:23:22.533Z,42.60
2023-05-12T13:25:52.285Z,42.60
2023-05-12T13:28:20.399Z,42.50
2023-05-12T13:30:48.420Z,42.20
2023-05-12T13:33:16.871Z,42.00
2023-05-12T13:35:45.026Z,41.90
2023-05-12T13:38:13.155Z,41.90
2023-05-12T13:40:41.781Z,42.10
2023-05-12T13:43:09.927Z,42.00
2023-05-12T13:45:37.967Z,41.80
2023-05-12T13:48:06.409Z,41.80
2023-05-12T13:50:34.917Z,41.80
2023-05-12T13:53:03.065Z,42.00
2023-05-12T13:55:34.029Z,42.00
2023-05-12T13:58:02.169Z,42.20
2023-05-12T14:00:30.464Z,42.10
2023-05-12T14:02:59.205Z,42.10
2023-05-12T14:05:27.504Z,42.20
2023-05-12T14:07:55.931Z,42.10
2023-05-12T14:10:24.014Z,42.20
2023-05-12T14:12:52.050Z,42.20
2023-05-12T14:15:32.537Z,42.30
2023-05-12T14:18:04.569Z,42.30
2023-05-12T14:20:32.502Z,42.20
2023-05-12T14:23:00.740Z,42.20
2023-05-12T14:25:30.893Z,42.20
2023-05-12T14:27:59.345Z,42.30
2023-05-12T14:30:27.512Z,42.00
2023-05-12T14:32:55.876Z,42.00
2023-05-12T14:35:27.729Z,42.10
2023-05-12T14:37:56.981Z,42.10
2023-05-12T14:40:25.289Z,42.20
2023-05-12T14:42:54.252Z,42.20
2023-05-12T14:45:22.668Z,42.20
2023-05-12T14:47:51.140Z,42.20
2023-05-12T14:50:19.530Z,42.30
2023-05-12T14:52:47.834Z,42.20
2023-05-12T14:55:17.426Z,42.20
2023-05-12T14:57:46.501Z,42.10
2023-05-12T15:00:15.572Z,42.20
2023-05-12T15:02:45.047Z,42.10
2023-05-12T15:05:13.780Z,42.20
2023-05-12T15:07:41.993Z,42.20
2023-05-12T15:10:10.699Z,42.10
2023-05-12T15:12:38.786Z,42.20
2023-05-12T15:15:08.982Z,42.10
2023-05-12T15:17:37.850Z,42.10
2023-05-12T15:20:07.109Z,42.10
2023-05-12T15:22:35.101Z,42.10
2023-05-12T15:25:06.608Z,42.10
2023-05-12T15:27:34.603Z,42.00
2023-05-12T15:30:03.231Z,42.10
2023-05-12T15:32:31.801Z,42.00
2023-05-12T15:35:00.002Z,42.00
2023-05-12T15:37:28.224Z,41.90
2023-05-12T15:39:56.433Z,42.10
2023-05-12T15:42:30.014Z,42.00
2023-05-12T15:45:00.815Z,42.00
2023-05-12T15:47:28.933Z,42.00
2023-05-12T15:49:57.012Z,41.90
2023-05-12T15:52:25.089Z,41.80
2023-05-12T15:54:53.414Z,41.80
2023-05-12T15:57:21.711Z,41.90
2023-05-12T15:59:50.228Z,41.80
2023-05-12T16:02:19.517Z,41.80
2023-05-12T16:04:47.692Z,41.80
2023-05-12T16:07:15.771Z,41.80
2023-05-12T16:09:43.814Z,41.70
2023-05-12T16:12:12.597Z,41.80
2023-05-12T16:14:40.571Z,41.80
2023-05-12T16:17:08.952Z,41.80
2023-05-12T16:19:37.210Z,41.80
2023-05-12T16:22:05.561Z,41.90
2023-05-12T16:24:34.900Z,41.90
2023-05-12T16:27:03.021Z,41.90
2023-05-12T16:29:31.489Z,42.00
2023-05-12T16:31:59.844Z,42.10
2023-05-12T16:34:27.947Z,42.00
2023-05-12T16:36:56.148Z,42.10
2023-05-12T16:39:24.704Z,42.20
2023-05-12T16:41:52.809Z,42.20
2023-05-12T16:44:20.891Z,42.20
2023-05-12T16:46:49.544Z,42.20
2023-05-12T16:49:17.847Z,42.20
2023-05-12T16:51:46.279Z,42.30
2023-05-12T16:54:14.300Z,42.20
2023-05-12T16:56:42.414Z,42.30
2023-05-12T16:59:10.941Z,42.20
2023-05-12T17:01:39.779Z,42.30
2023-05-12T17:04:12.606Z,42.30
2023-05-12T17:06:40.567Z,42.20
2023-05-12T17:09:08.604Z,42.30
2023-05-12T17:11:36.864Z,42.30
2023-05-12T17:14:05.061Z,42.30
2023-05-12T17:16:33.407Z,42.30
2023-05-12T17:21:33.814Z,42.30
2023-05-12T17:24:01.950Z,42.40
2023-05-12T17:26:30.081Z,42.30
2023-05-12T17:28:58.103Z,42.40
2023-05-12T17:31:26.265Z,42.40
2023-05-12T17:33:54.299Z,42.40
2023-05-12T17:36:22.654Z,42.40
2023-05-12T17:38:54.551Z,42.40
2023-05-12T17:41:22.779Z,42.40
2023-05-12T17:43:50.826Z,42.40
2023-05-12T17:46:18.918Z,42.50
2023-05-12T17:48:47.057Z,42.50
2023-05-12T17:51:15.362Z,42.50
2023-05-12T17:53:43.546Z,42.50
2023-05-12T17:56:11.865Z,42.50
2023-05-12T17:58:40.123Z,42.50
2023-05-12T18:01:08.552Z,42.60
2023-05-12T18:03:36.940Z,42.60
2023-05-12T18:06:05.863Z,42.60
2023-05-12T18:08:33.997Z,42.60
2023-05-12T18:11:02.182Z,42.60
2023-05-12T18:13:30.238Z,42.60
2023-05-12T18:15:58.518Z,42.60
2023-05-12T18:18:27.025Z,42.60
2023-05-12T18:20:55.276Z,42.60
2023-05-12T18:23:23.402Z,42.70
2023-05-12T18:25:51.514Z,42.70
2023-05-12T18:28:19.634Z,42.60
2023-05-12T18:30:47.882Z,42.70
2023-05-12T18:33:16.382Z,42.70
2023-05-12T18:35:44.441Z,42.70
2023-05-12T18:38:12.666Z,42.70
2023-05-12T18:40:40.904Z,42.80
2023-05-12T18:43:08.965Z,42.80
2023-05-12T18:45:37.178Z,42.70
2023-05-12T18:48:05.724Z,42.80
2023-05-12T18:50:33.838Z,42.80
2023-05-12T18:53:01.783Z,42.80
2023-05-12T18:55:29.956Z,42.80
2023-05-12T18:57:58.085Z,42.80
2023-05-12T19:00:27.819Z,42.90
2023-05-12T19:02:55.816Z,42.90
2023-05-12T19:05:24.242Z,42.80
2023-05-12T19:07:52.384Z,42.90
2023-05-12T19:10:20.452Z,42.90
2023-05-12T19:12:50.142Z,42.90
2023-05-12T19:15:18.583Z,42.90
2023-05-12T19:17:46.720Z,43.00
2023-05-12T19:20:15.269Z,43.00
2023-05-12T19:22:44.219Z,43.00
2023-05-12T19:25:13.084Z,43.00
2023-05-12T19:27:41.462Z,43.00
2023-05-12T19:30:09.917Z,43.00
2023-05-12T19:32:38.068Z,43.00
2023-05-12T19:35:07.127Z,43.00
2023-05-12T19:37:35.206Z,43.00
2023-05-12T19:40:04.271Z,43.00
2023-05-12T19:42:32.878Z,43.00
2023-05-12T19:45:00.998Z,43.00
2023-05-12T19:47:30.482Z,43.10
2023-05-12T19:49:58.894Z,43.00
2023-05-12T19:52:29.384Z,43.10
2023-05-12T19:54:57.904Z,43.10
2023-05-12T19:57:26.185Z,43.10
2023-05-12T19:59:54.305Z,43.10
2023-05-12T20:02:28.392Z,43.10
2023-05-12T20:04:59.398Z,43.10
2023-05-12T20:07:28.224Z,43.10
2023-05-12T20:09:56.375Z,43.10
2023-05-12T20:12:24.695Z,43.10
2023-05-12T20:14:52.927Z,43.10
2023-05-12T20:17:20.908Z,43.20
2023-05-12T20:19:49.006Z,43.20
2023-05-12T20:22:16.885Z,43.20
2023-05-12T20:24:45.400Z,43.20
2023-05-12T20:27:13.417Z,43.20
2023-05-12T20:29:42.036Z,43.20
2023-05-12T20:32:10.792Z,43.20
2023-05-12T20:34:39.881Z,43.20
2023-05-12T20:37:07.958Z,43.20
2023-05-12T20:39:35.935Z,43.30
2023-05-12T20:42:04.177Z,43.30
2023-05-12T20:44:32.151Z,43.20
2023-05-12T20:47:00.377Z,43.30
2023-05-12T20:49:28.404Z,43.30
2023-05-12T20:51:56.552Z,43.30
2023-05-12T20:54:24.776Z,43.30
2023-05-12T20:56:52.829Z,43.30
2023-05-12T20:59:20.830Z,43.30
2023-05-12T21:01:48.938Z,43.40
2023-05-12T21:04:17.611Z,43.40
2023-05-12T21:06:45.618Z,43.40
2023-05-12T21:09:14.089Z,43.40
2023-05-12T21:11:42.219Z,43.40
2023-05-12T21:14:10.388Z,43.40
2023-05-12T21:16:38.738Z,43.40
2023-05-12T21:19:06.838Z,43.40
2023-05-12T21:21:35.583Z,43.50
2023-05-12T21:24:03.743Z,43.50
2023-05-12T21:26:31.955Z,43.50
2023-05-12T21:29:03.025Z,43.50
2023-05-12T21:31:31.197Z,43.50
2023-05-12T21:33:59.135Z,43.50
2023-05-12T21:36:27.144Z,43.50
2023-05-12T21:38:55.240Z,43.50
2023-05-12T21:41:23.346Z,43.50
2023-05-12T21:43:51.306Z,43.50
2023-05-12T21:46:19.299Z,43.60
2023-05-12T21:48:47.355Z,43.60
2023-05-12T21:51:15.579Z,43.60
2023-05-12T21:53:43.853Z,43.60
2023-05-12T21:56:11.927Z,43.60
2023-05-12T21:58:40.021Z,43.50
2023-05-12T22:01:08.203Z,43.60
2023-05-12T22:03:36.088Z,43.60
2023-05-12T22:06:04.202Z,43.60
2023-05-12T22:08:32.076Z,43.70
2023-05-12T22:11:00.246Z,43.70
2023-05-12T22:13:28.218Z,43.70
2023-05-12T22:15:56.186Z,43.70
2023-05-12T22:18:24.072Z,43.60
2023-05-12T22:20:52.665Z,43.70
2023-05-12T22:23:20.583Z,43.70
2023-05-12T22:25:48.461Z,43.70
2023-05-12T22:28:16.428Z,43.60
2023-05-12T22:30:47.425Z,43.70
2023-05-12T22:33:15.999Z,43.70
2023-05-12T22:35:43.801Z,43.70
2023-05-12T22:38:11.801Z,43.70
2023-05-12T22:40:39.696Z,43.70
2023-05-12T22:43:07.701Z,43.70
2023-05-12T22:45:36.514Z,43.70
2023-05-12T22:48:05.321Z,43.80
2023-05-12T22:50:33.268Z,43.80
2023-05-12T22:53:01.312Z,43.70
2023-05-12T22:55:31.126Z,43.80
2023-05-12T22:58:00.144Z,43.80
2023-05-12T23:00:28.484Z,43.80
2023-05-12T23:02:56.827Z,43.80
2023-05-12T23:05:24.838Z,43.80
2023-05-12T23:07:52.812Z,43.80
2023-05-12T23:10:21.004Z,43.80
2023-05-12T23:12:49.137Z,43.80
2023-05-12T23:15:17.074Z,43.90
2023-05-12T23:17:44.925Z,43.80
2023-05-12T23:20:13.101Z,43.90
2023-05-12T23:22:41.077Z,43.80
2023-05-12T23:25:09.880Z,43.80
2023-05-12T23:27:37.915Z,43.80
2023-05-12T23:30:06.784Z,43.80
2023-05-12T23:32:34.760Z,43.90
2023-05-12T23:35:02.806Z,43.90
2023-05-12T23:37:30.764Z,43.90
2023-05-12T23:39:58.751Z,43.90
2023-05-12T23:42:27.163Z,43.90
2023-05-12T23:44:55.412Z,43.90
2023-05-12T23:47:23.644Z,43.90
2023-05-12T23:49:51.668Z,44.00
2023-05-12T23:52:19.578Z,43.90
2023-05-12T23:54:47.639Z,44.00
2023-05-12T23:57:15.729Z,43.90
2023-05-12T23:59:44.257Z,43.90
